Flight Track Log - Related Links

Times and Time Zones

All times are in EDT time to prevent confusion due to time zone crossing. See the N658DS flight status page for this flight to view local times or setup timezone preferences in your user account.

Time Position Orientation Groundspeed Altitude Reporting Facility
EDT Latitude Longitude Course Direction KTS MPH feet Rate Location/Type
Sun 10:47:01 AM 30.0694 -84.0206 151° Southeast 108 124 3,500  Level Jacksonville Center
Sun 10:48:01 AM 30.0550 -83.9869 116° Southeast 103 119 3,500  Level Jacksonville Center
Sun 10:49:01 AM 30.0428 -83.9581 116° Southeast 103 119 3,500  Level Jacksonville Center
Sun 10:50:01 AM 30.0306 -83.9267 114° Southeast 103 119 3,500  Level Jacksonville Center
Sun 10:51:01 AM 30.0183 -83.8953 114° Southeast 103 119 3,500  Level Jacksonville Center
Sun 10:52:00 AM 29.8853 -84.0276 151° Southeast  Level Estimated
Sun 10:52:01 AM 30.0081 -83.8639 111° Southeast 103 119 3,500  Level Jacksonville Center
Sun 10:53:01 AM 29.9958 -83.8350 116° Southeast 97 112 3,500  Level Jacksonville Center
Sun 10:54:01 AM 29.9814 -83.8014 116° Southeast 97 112 3,500  Level Jacksonville Center
Sun 10:55:01 AM 29.9669 -83.7678 116° Southeast 97 112 3,500  Level Jacksonville Center
Sun 10:56:01 AM 29.9525 -83.7389 120° Southeast 97 112 3,500  Level Jacksonville Center
Sun 10:57:01 AM 29.9339 -83.7194 138° Southeast 97 112 3,500  Level Jacksonville Center
Sun 10:58:00 AM 29.9111 -83.6931 135° Southeast 102 117 3,500  Level Jacksonville Center
Sun 10:59:01 AM 29.8861 -83.6783 153° Southeast 102 117 3,500  Level Jacksonville Center
Sun 11:00:01 AM 29.8592 -83.6661 159° South 102 117 3,500  Level Jacksonville Center
Sun 11:01:01 AM 29.8364 -83.6469 144° Southeast 102 117 3,500  Level Jacksonville Center
Sun 11:02:00 AM 29.8114 -83.6250 143° Southeast 102 117 3,500  Level Jacksonville Center
Sun 11:03:01 AM 29.7906 -83.6081 145° Southeast 102 117 3,500  Level Jacksonville Center
Sun 11:04:00 AM 29.7656 -83.5842 140° Southeast 102 117 3,500  Level Jacksonville Center
Sun 11:05:00 AM 29.7428 -83.5672 147° Southeast 102 117 3,500  Level Jacksonville Center
Sun 11:06:01 AM 29.7242 -83.5408 129° Southeast 107 123 3,500  Level Jacksonville Center
Sun 11:07:01 AM 29.7056 -83.5167 132° Southeast 107 123 3,500  Level Jacksonville Center
Sun 11:08:00 AM 29.6867 -83.4903 129° Southeast 107 123 3,500  Level Jacksonville Center
Sun 11:09:01 AM 29.6681 -83.4661 132° Southeast 107 123 3,500  Level Jacksonville Center
Sun 11:10:01 AM 29.6517 -83.4422 128° Southeast 101 116 3,500  Level Jacksonville Center
Sun 11:11:01 AM 29.6411 -83.4136 113° Southeast 95 109 3,500 250 Level Jacksonville Center
Sun 11:12:01 AM 29.6331 -83.3847 108° East 89 102 4,000 504 Climbing Jacksonville Center
Sun 11:13:00 AM 29.6247 -83.3586 110° East 89 102 4,500 500 Climbing Jacksonville Center
Sun 11:14:01 AM 29.6206 -83.3275 99° East 94 108 5,000 496 Climbing Jacksonville Center
Sun 11:15:01 AM 29.6144 -83.2939 102° East 94 108 5,500 252 Climbing Jacksonville Center
Sun 11:16:00 AM 29.5936 -83.2747 141° Southeast 99 114 5,500  Level Jacksonville Center
Sun 11:17:01 AM 29.5625 -83.2675 169° South 94 108 5,500  Level Jacksonville Center
Sun 11:18:01 AM 29.5353 -83.2556 159° South 104 120 5,500  Level Jacksonville Center
Sun 11:19:01 AM 29.5039 -83.2433 161° South 109 125 5,500  Level Jacksonville Center
Sun 11:20:01 AM 29.4747 -83.2289 157° South 114 131 5,500  Level Jacksonville Center
Sun 11:21:01 AM 29.4456 -83.2144 157° South 114 131 5,500  Level Jacksonville Center
Sun 11:22:01 AM 29.4186 -83.2025 159° South 109 125 5,500  Level Jacksonville Center
Sun 11:23:01 AM 29.3894 -83.1881 157° South 109 125 5,500  Level Jacksonville Center
Sun 11:24:01 AM 29.3581 -83.1761 162° South 109 125 5,500  Level Jacksonville Center
Sun 11:25:00 AM 29.3308 -83.1617 155° Southeast 109 125 5,500  Level Jacksonville Center
Sun 11:26:00 AM 29.2997 -83.1497 161° South 109 125 5,500  Level Jacksonville Center
Sun 11:27:01 AM 29.2706 -83.1353 157° South 109 125 5,500 99 Level Jacksonville Center
Sun 11:28:01 AM 29.2392 -83.1211 159° South 109 125 5,700 353 Climbing Jacksonville Center
Sun 11:29:00 AM 29.2119 -83.1092 159° South 109 125 6,200 504 Climbing Jacksonville Center
Sun 11:30:00 AM 29.1869 -83.0994 161° South 109 125 6,700 500 Climbing Jacksonville Center
Sun 11:31:00 AM 29.1600 -83.0853 155° Southeast 109 125 7,200 397 Climbing Jacksonville Center
Sun 11:32:01 AM 29.1350 -83.0733 157° South 109 125 7,500 149 Climbing Jacksonville Center
Sun 11:33:01 AM 29.1036 -83.0614 162° South 109 125 7,500  Level Jacksonville Center
Sun 11:34:01 AM 29.0722 -83.0469 158° South 114 131 7,500  Level Jacksonville Center
Sun 11:35:01 AM 29.0411 -83.0328 158° South 114 131 7,500  Level Jacksonville Center
Sun 11:36:01 AM 29.0117 -83.0183 157° South 114 131 7,500  Level Jacksonville Center
Sun 11:37:01 AM 28.9806 -83.0064 161° South 114 131 7,500  Level Jacksonville Center
Sun 11:38:01 AM 28.9514 -82.9897 153° Southeast 114 131 7,500  Level Jacksonville Center
Sun 11:39:01 AM 28.9200 -82.9781 162° South 114 131 7,500  Level Jacksonville Center
Sun 11:40:01 AM 28.8908 -82.9636 157° South 114 131 7,500  Level Jacksonville Center
Sun 11:41:01 AM 28.8617 -82.9519 161° South 114 131 7,500  Level Jacksonville Center
Sun 11:42:01 AM 28.8303 -82.9375 158° South 114 131 7,500  Level Jacksonville Center
Sun 11:43:01 AM 28.8011 -82.9258 161° South 114 131 7,500  Level Jacksonville Center
Sun 11:45:15 AM 28.7333 -82.9000 162° South 117 135 7,500  Level Tampa TRACON
Sun 11:46:16 AM 28.7000 -82.8833 156° South 117 135 7,500  Level Tampa TRACON
Sun 11:47:21 AM 28.6667 -82.8667 156° South 116 133 7,500  Level Tampa TRACON
Sun 11:49:00 AM 28.6227 -82.8447 156° South  Level FlightAware Approximate
Sun 11:56:00 AM 28.4331 -82.7601 159° South  Level FlightAware Approximate
Sun 11:57:00 AM 28.4060 -82.7482 159° South  Level FlightAware Approximate
Sun 11:58:00 AM 28.3789 -82.7363 159° South  Level FlightAware Approximate
Sun 11:59:00 AM 28.3517 -82.7244 159° South  Level FlightAware Approximate
Sun 12:00:00 PM 28.3246 -82.7125 159° South  Level FlightAware Approximate
Sun 12:01:00 PM 28.2974 -82.7007 159° South  Level FlightAware Approximate
Sun 12:02:00 PM 28.2703 -82.6888 159° South  Level FlightAware Approximate
Sun 12:03:00 PM 28.2431 -82.6770 159° South  Level FlightAware Approximate
Sun 12:04:00 PM 28.2160 -82.6651 159° South  Level FlightAware Approximate
Sun 12:05:00 PM 28.1888 -82.6533 159° South  Level FlightAware Approximate
Sun 12:06:00 PM 28.1617 -82.6414 159° South  Level FlightAware Approximate
Sun 12:07:00 PM 28.1345 -82.6296 159° South  Level FlightAware Approximate
Sun 12:08:00 PM 28.1074 -82.6178 159° South  Level FlightAware Approximate
Sun 12:09:00 PM 28.0802 -82.6059 159° South  Level FlightAware Approximate
Sun 12:10:00 PM 28.0531 -82.5941 159° South  Level FlightAware Approximate
Sun 12:11:00 PM 28.0259 -82.5823 159° South  Level FlightAware Approximate
Sun 12:12:00 PM 27.9987 -82.5705 159° South  Level FlightAware Approximate
Sun 12:13:00 PM 27.9716 -82.5587 159° South  Level FlightAware Approximate
Sun 12:14:00 PM 27.9444 -82.5469 159° South  Level FlightAware Approximate
Sun 12:15:00 PM 27.9173 -82.5352 159° South  Level FlightAware Approximate
Sun 12:16:00 PM 27.8901 -82.5234 159° South  Level FlightAware Approximate
Sun 12:17:00 PM 27.8629 -82.5116 159° South  Level FlightAware Approximate
Sun 12:18:00 PM 27.8358 -82.4998 159° South  Level FlightAware Approximate
Sun 12:19:00 PM 27.8086 -82.4881 159° South  Level FlightAware Approximate
Sun 12:20:00 PM 27.7814 -82.4763 159° South  Level FlightAware Approximate
Sun 12:21:00 PM 27.7543 -82.4646 159° South  Level FlightAware Approximate
Sun 12:22:00 PM 27.7271 -82.4528 159° South  Level FlightAware Approximate
Sun 12:23:00 PM 27.6999 -82.4411 159° South  Level FlightAware Approximate
Sun 12:24:00 PM 27.6728 -82.4294 159° South  Level FlightAware Approximate
Sun 12:25:00 PM 27.6456 -82.4176 159° South  Level FlightAware Approximate
Sun 12:26:00 PM 27.6184 -82.4059 159° South  Level FlightAware Approximate
Sun 12:27:00 PM 27.5912 -82.3942 159° South  Level FlightAware Approximate
Sun 12:28:00 PM 27.5641 -82.3825 159° South  Level FlightAware Approximate
Sun 12:29:00 PM 27.5369 -82.3708 159° South  Level FlightAware Approximate
Sun 12:30:00 PM 27.5097 -82.3591 159° South  Level FlightAware Approximate
Sun 12:31:00 PM 27.4825 -82.3474 159° South  Level FlightAware Approximate
Sun 12:32:00 PM 27.4554 -82.3357 159° South  Level FlightAware Approximate
Sun 12:33:00 PM 27.4282 -82.3240 159° South  Level FlightAware Approximate
Sun 12:34:00 PM 27.4010 -82.3124 159° South  Level FlightAware Approximate
Sun 12:35:00 PM 27.3738 -82.3007 159° South  Level FlightAware Approximate
Sun 12:36:00 PM 27.3466 -82.2890 159° South  Level FlightAware Approximate
Sun 12:37:00 PM 27.3201 -82.2758 153° Southeast  Level FlightAware Approximate
Sun 12:38:00 PM 27.2942 -82.2609 153° Southeast  Level FlightAware Approximate
Sun 12:39:00 PM 27.2682 -82.2461 153° Southeast  Level FlightAware Approximate
Sun 12:40:00 PM 27.2423 -82.2313 153° Southeast  Level FlightAware Approximate
Sun 12:41:00 PM 27.2163 -82.2166 162° South  Level FlightAware Approximate
Sun 12:42:00 PM 27.1887 -82.2065 162° South  Level FlightAware Approximate
Sun 12:43:00 PM 27.1610 -82.1964 162° South  Level FlightAware Approximate
Sun 12:44:00 PM 27.1333 -82.1863 162° South  Level FlightAware Approximate
Sun 12:45:00 PM 27.1056 -82.1763 162° South  Level FlightAware Approximate
Sun 12:46:00 PM 27.0780 -82.1662 162° South  Level FlightAware Approximate
Sun 12:47:00 PM 27.0503 -82.1562 162° South  Level FlightAware Approximate
Sun 12:48:00 PM 27.0228 -82.1454 159° South  Level FlightAware Approximate
Sun 12:49:00 PM 26.9957 -82.1335 159° South  Level FlightAware Approximate
Sun 12:50:00 PM 26.9686 -82.1217 159° South  Level FlightAware Approximate
Sun 12:51:00 PM 26.9415 -82.1098 159° South  Level FlightAware Approximate
Sun 12:52:00 PM 26.9144 -82.0980 159° South  Level FlightAware Approximate
Sun 12:53:00 PM 26.8873 -82.0861 159° South  Level FlightAware Approximate
Sun 12:54:00 PM 26.8602 -82.0743 159° South  Level FlightAware Approximate
Sun 12:55:00 PM 26.8331 -82.0625 159° South  Level FlightAware Approximate
Sun 12:56:00 PM 26.8060 -82.0507 159° South  Level FlightAware Approximate
Sun 12:57:00 PM 26.7789 -82.0388 159° South  Level FlightAware Approximate
Sun 12:58:00 PM 26.7518 -82.0270 159° South  Level FlightAware Approximate
Sun 12:59:00 PM 26.7247 -82.0152 159° South  Level FlightAware Approximate
Sun 01:00:00 PM 26.6976 -82.0034 159° South  Level FlightAware Approximate
Sun 01:01:00 PM 26.6705 -81.9916 159° South  Level FlightAware Approximate
Sun 01:02:00 PM 26.6434 -81.9798 159° South  Level FlightAware Approximate
Sun 01:03:00 PM 26.6162 -81.9681 159° South  Level FlightAware Approximate
Sun 01:04:00 PM 26.5891 -81.9563 159° South  Level FlightAware Approximate
Sun 01:05:00 PM 26.5620 -81.9445 159° South  Level FlightAware Approximate
Sun 01:06:00 PM 26.5349 -81.9327 159° South  Level FlightAware Approximate
Sun 01:07:00 PM 26.5078 -81.9210 159° South  Level FlightAware Approximate
Sun 01:08:00 PM 26.4806 -81.9092 159° South  Level FlightAware Approximate
Sun 01:09:00 PM 26.4535 -81.8975 159° South  Level FlightAware Approximate
Sun 01:10:00 PM 26.4264 -81.8857 159° South  Level FlightAware Approximate
Sun 01:11:00 PM 26.3993 -81.8740 159° South  Level FlightAware Approximate
Sun 01:12:00 PM 26.3722 -81.8623 159° South  Level FlightAware Approximate
Sun 01:13:00 PM 26.3451 -81.8505 159° South  Level FlightAware Approximate
Sun 01:14:00 PM 26.3179 -81.8388 159° South  Level FlightAware Approximate
Sun 01:15:00 PM 26.2908 -81.8271 159° South  Level FlightAware Approximate
Sun 01:16:00 PM 26.2636 -81.8156 163° South  Level FlightAware Approximate
Sun 01:17:00 PM 26.2357 -81.8064 163° South  Level FlightAware Approximate
Sun 01:18:00 PM 26.2083 -81.7958 156° South  Level FlightAware Approximate
Sun 01:19:00 PM 26.1817 -81.7825 156° South  Level FlightAware Approximate
Sun 01:20:00 PM 26.1552 -81.7693 156° South  Level FlightAware Approximate
Sun 01:21:00 PM 26.1500 -81.7667 156° South  Level FlightAware Approximate
Sun 01:22:00 PM 26.1524 -81.7756 156° South  Level Estimated
Sun 01:23:00 PM 26.1524 -81.7756 156° South  Level Estimated
Sun 01:24:00 PM 26.1524 -81.7756 156° South  Level Estimated
Sun 01:25:00 PM 26.1524 -81.7756 156° South  Level Estimated
Sun 01:26:00 PM 26.1524 -81.7756 156° South  Level Estimated
Sun 01:27:00 PM 26.1524 -81.7756 156° South  Level Estimated
Sun 01:28:00 PM 26.1524 -81.7756 156° South  Level Estimated
Sun 01:29:00 PM 26.1524 -81.7756 156° South  Level Estimated
Sun 01:30:00 PM 26.1524 -81.7756 156° South  Level Estimated
Sun 01:31:00 PM 26.1524 -81.7756 156° South  Level Estimated
Sun 01:32:00 PM 26.1524 -81.7756 156° South  Level Estimated
Sun 01:33:00 PM 26.1524 -81.7756 156° South  Level Estimated
Sun 01:34:00 PM 26.1524 -81.7756 156° South  Level Estimated
Sun 01:35:00 PM 26.1524 -81.7756 156° South  Level Estimated
Sun 01:36:00 PM 26.1524 -81.7756 156° South  Level Estimated
Sun 01:37:00 PM 26.1524 -81.7756 156° South  Level Estimated

Login

Don't have an account? Register now (free) for customized features, flight alerts, and more!